sensor_id;sensor_type;location;lat;lon;timestamp;temperature;humidity
14555;DHT22;7364;50.870;4.722;2022-10-03T00:01:16;11.80;99.90
14555;DHT22;7364;50.870;4.722;2022-10-03T00:03:55;11.80;99.90
14555;DHT22;7364;50.870;4.722;2022-10-03T00:06:39;11.60;99.90
14555;DHT22;7364;50.870;4.722;2022-10-03T00:09:22;11.70;99.90
14555;DHT22;7364;50.870;4.722;2022-10-03T00:12:07;11.80;99.90
14555;DHT22;7364;50.870;4.722;2022-10-03T00:14:42;11.70;99.90
14555;DHT22;7364;50.870;4.722;2022-10-03T00:17:15;11.70;99.90
14555;DHT22;7364;50.870;4.722;2022-10-03T00:19:53;11.60;99.90
14555;DHT22;7364;50.870;4.722;2022-10-03T00:22:33;11.50;99.90
14555;DHT22;7364;50.870;4.722;2022-10-03T00:25:21;11.40;99.90
14555;DHT22;7364;50.870;4.722;2022-10-03T00:28:03;11.50;99.90
14555;DHT22;7364;50.870;4.722;2022-10-03T00:30:49;11.60;99.90
14555;DHT22;7364;50.870;4.722;2022-10-03T00:33:28;11.50;99.90
14555;DHT22;7364;50.870;4.722;2022-10-03T00:36:03;11.50;99.90
14555;DHT22;7364;50.870;4.722;2022-10-03T00:39:04;11.40;99.90
14555;DHT22;7364;50.870;4.722;2022-10-03T00:41:53;11.50;99.90
14555;DHT22;7364;50.870;4.722;2022-10-03T00:44:41;11.50;99.90
14555;DHT22;7364;50.870;4.722;2022-10-03T00:50:42;11.30;99.90
14555;DHT22;7364;50.870;4.722;2022-10-03T00:56:44;10.70;99.90
14555;DHT22;7364;50.870;4.722;2022-10-03T00:59:31;10.40;99.90
14555;DHT22;7364;50.870;4.722;2022-10-03T01:02:19;10.30;99.90
14555;DHT22;7364;50.870;4.722;2022-10-03T01:04:58;10.30;99.90
14555;DHT22;7364;50.870;4.722;2022-10-03T01:10:30;10.10;99.90
14555;DHT22;7364;50.870;4.722;2022-10-03T01:13:19;10.20;99.90
14555;DHT22;7364;50.870;4.722;2022-10-03T01:15:57;10.40;99.90
14555;DHT22;7364;50.870;4.722;2022-10-03T01:18:34;10.60;99.90
14555;DHT22;7364;50.870;4.722;2022-10-03T01:21:13;10.50;99.90
14555;DHT22;7364;50.870;4.722;2022-10-03T01:26:59;10.90;99.90
14555;DHT22;7364;50.870;4.722;2022-10-03T01:29:48;11.00;99.90
14555;DHT22;7364;50.870;4.722;2022-10-03T01:32:43;11.00;99.90
14555;DHT22;7364;50.870;4.722;2022-10-03T01:35:25;11.00;99.90
14555;DHT22;7364;50.870;4.722;2022-10-03T01:38:04;11.00;99.90
14555;DHT22;7364;50.870;4.722;2022-10-03T01:40:38;11.00;99.90
14555;DHT22;7364;50.870;4.722;2022-10-03T01:43:16;11.00;99.90
14555;DHT22;7364;50.870;4.722;2022-10-03T01:45:55;11.00;99.90
14555;DHT22;7364;50.870;4.722;2022-10-03T01:48:33;10.90;99.90
14555;DHT22;7364;50.870;4.722;2022-10-03T01:51:08;10.90;99.90
14555;DHT22;7364;50.870;4.722;2022-10-03T01:53:54;10.90;99.90
14555;DHT22;7364;50.870;4.722;2022-10-03T01:56:30;10.70;99.90
14555;DHT22;7364;50.870;4.722;2022-10-03T01:59:04;10.60;99.90
14555;DHT22;7364;50.870;4.722;2022-10-03T02:01:46;10.40;99.90
14555;DHT22;7364;50.870;4.722;2022-10-03T02:04:27;10.40;99.90
14555;DHT22;7364;50.870;4.722;2022-10-03T02:07:03;10.30;99.90
14555;DHT22;7364;50.870;4.722;2022-10-03T02:09:38;10.00;99.90
14555;DHT22;7364;50.870;4.722;2022-10-03T02:12:13;9.70;99.90
14555;DHT22;7364;50.870;4.722;2022-10-03T02:14:52;9.70;99.90
14555;DHT22;7364;50.870;4.722;2022-10-03T02:17:27;9.80;99.90
14555;DHT22;7364;50.870;4.722;2022-10-03T02:20:03;10.00;99.90
14555;DHT22;7364;50.870;4.722;2022-10-03T02:22:46;10.20;99.90
14555;DHT22;7364;50.870;4.722;2022-10-03T02:25:23;10.30;99.90
14555;DHT22;7364;50.870;4.722;2022-10-03T02:31:27;10.60;99.90
14555;DHT22;7364;50.870;4.722;2022-10-03T02:37:26;10.60;99.90
14555;DHT22;7364;50.870;4.722;2022-10-03T02:43:24;10.50;99.90
14555;DHT22;7364;50.870;4.722;2022-10-03T02:46:19;10.40;99.90
14555;DHT22;7364;50.870;4.722;2022-10-03T02:49:35;10.50;99.90
14555;DHT22;7364;50.870;4.722;2022-10-03T02:55:38;10.20;99.90
14555;DHT22;7364;50.870;4.722;2022-10-03T03:01:48;9.30;99.90
14555;DHT22;7364;50.870;4.722;2022-10-03T03:07:54;9.60;99.90
14555;DHT22;7364;50.870;4.722;2022-10-03T03:10:40;9.80;99.90
14555;DHT22;7364;50.870;4.722;2022-10-03T03:13:53;10.00;99.90
14555;DHT22;7364;50.870;4.722;2022-10-03T03:19:37;10.10;99.90
14555;DHT22;7364;50.870;4.722;2022-10-03T03:22:15;9.80;99.90
14555;DHT22;7364;50.870;4.722;2022-10-03T03:25:09;9.60;99.90
14555;DHT22;7364;50.870;4.722;2022-10-03T03:27:53;9.60;99.90
14555;DHT22;7364;50.870;4.722;2022-10-03T03:30:34;9.80;99.90
14555;DHT22;7364;50.870;4.722;2022-10-03T03:33:13;9.80;99.90
14555;DHT22;7364;50.870;4.722;2022-10-03T03:35:56;9.60;99.90
14555;DHT22;7364;50.870;4.722;2022-10-03T03:38:36;9.50;99.90
14555;DHT22;7364;50.870;4.722;2022-10-03T03:41:25;9.40;99.90
14555;DHT22;7364;50.870;4.722;2022-10-03T03:44:21;9.30;99.90
14555;DHT22;7364;50.870;4.722;2022-10-03T03:47:29;9.60;99.90
14555;DHT22;7364;50.870;4.722;2022-10-03T03:50:21;9.90;99.90
14555;DHT22;7364;50.870;4.722;2022-10-03T03:53:04;10.00;99.90
14555;DHT22;7364;50.870;4.722;2022-10-03T03:55:51;10.10;99.90
14555;DHT22;7364;50.870;4.722;2022-10-03T03:58:35;10.10;99.90
14555;DHT22;7364;50.870;4.722;2022-10-03T04:04:20;9.90;99.90
14555;DHT22;7364;50.870;4.722;2022-10-03T04:06:56;9.90;99.90
14555;DHT22;7364;50.870;4.722;2022-10-03T04:09:47;10.00;99.90
14555;DHT22;7364;50.870;4.722;2022-10-03T04:12:30;9.90;99.90
14555;DHT22;7364;50.870;4.722;2022-10-03T04:15:30;9.70;99.90
14555;DHT22;7364;50.870;4.722;2022-10-03T04:18:19;9.90;99.90
14555;DHT22;7364;50.870;4.722;2022-10-03T04:21:22;9.90;99.90
14555;DHT22;7364;50.870;4.722;2022-10-03T04:24:03;9.60;99.90
14555;DHT22;7364;50.870;4.722;2022-10-03T04:26:47;9.30;99.90
14555;DHT22;7364;50.870;4.722;2022-10-03T04:29:49;9.10;99.90
14555;DHT22;7364;50.870;4.722;2022-10-03T04:32:38;9.00;99.90
14555;DHT22;7364;50.870;4.722;2022-10-03T04:35:22;9.10;99.90
14555;DHT22;7364;50.870;4.722;2022-10-03T04:38:02;9.40;99.90
14555;DHT22;7364;50.870;4.722;2022-10-03T04:40:44;9.40;99.90
14555;DHT22;7364;50.870;4.722;2022-10-03T04:43:18;9.40;99.90
14555;DHT22;7364;50.870;4.722;2022-10-03T04:46:17;9.10;99.90
14555;DHT22;7364;50.870;4.722;2022-10-03T04:48:53;9.10;99.90
14555;DHT22;7364;50.870;4.722;2022-10-03T04:51:36;9.10;99.90
14555;DHT22;7364;50.870;4.722;2022-10-03T04:54:15;9.00;99.90
14555;DHT22;7364;50.870;4.722;2022-10-03T04:56:51;9.10;99.90
14555;DHT22;7364;50.870;4.722;2022-10-03T04:59:48;9.10;99.90
14555;DHT22;7364;50.870;4.722;2022-10-03T05:02:42;9.30;99.90
14555;DHT22;7364;50.870;4.722;2022-10-03T05:05:42;9.40;99.90
14555;DHT22;7364;50.870;4.722;2022-10-03T05:08:31;9.50;99.90
14555;DHT22;7364;50.870;4.722;2022-10-03T05:11:12;9.30;99.90
14555;DHT22;7364;50.870;4.722;2022-10-03T05:13:55;9.20;99.90
14555;DHT22;7364;50.870;4.722;2022-10-03T05:16:31;9.00;99.90
14555;DHT22;7364;50.870;4.722;2022-10-03T05:19:20;9.00;99.90
14555;DHT22;7364;50.870;4.722;2022-10-03T05:21:58;9.10;99.90
14555;DHT22;7364;50.870;4.722;2022-10-03T05:24:35;9.10;99.90
14555;DHT22;7364;50.870;4.722;2022-10-03T05:27:14;9.20;99.90
14555;DHT22;7364;50.870;4.722;2022-10-03T05:29:54;9.40;99.90
14555;DHT22;7364;50.870;4.722;2022-10-03T05:32:29;9.50;99.90
14555;DHT22;7364;50.870;4.722;2022-10-03T05:35:14;9.50;99.90
14555;DHT22;7364;50.870;4.722;2022-10-03T05:38:09;9.50;99.90
14555;DHT22;7364;50.870;4.722;2022-10-03T05:40:41;9.40;99.90
14555;DHT22;7364;50.870;4.722;2022-10-03T05:43:25;9.00;99.90
14555;DHT22;7364;50.870;4.722;2022-10-03T05:46:00;8.90;99.90
14555;DHT22;7364;50.870;4.722;2022-10-03T05:48:42;8.90;99.90
14555;DHT22;7364;50.870;4.722;2022-10-03T05:51:51;8.90;99.90
14555;DHT22;7364;50.870;4.722;2022-10-03T05:57:56;9.30;99.90
14555;DHT22;7364;50.870;4.722;2022-10-03T06:00:31;9.00;99.90
14555;DHT22;7364;50.870;4.722;2022-10-03T06:03:20;8.90;99.90
14555;DHT22;7364;50.870;4.722;2022-10-03T06:06:11;8.90;99.90
14555;DHT22;7364;50.870;4.722;2022-10-03T06:12:09;8.90;99.90
14555;DHT22;7364;50.870;4.722;2022-10-03T06:14:59;9.10;99.90
14555;DHT22;7364;50.870;4.722;2022-10-03T06:17:55;9.30;99.90
14555;DHT22;7364;50.870;4.722;2022-10-03T06:26:52;9.50;99.90
14555;DHT22;7364;50.870;4.722;2022-10-03T06:30:01;9.50;99.90
14555;DHT22;7364;50.870;4.722;2022-10-03T06:36:14;9.70;99.90
14555;DHT22;7364;50.870;4.722;2022-10-03T06:39:32;9.60;99.90
14555;DHT22;7364;50.870;4.722;2022-10-03T06:45:44;9.90;99.90
14555;DHT22;7364;50.870;4.722;2022-10-03T06:48:32;9.90;99.90
14555;DHT22;7364;50.870;4.722;2022-10-03T06:54:43;9.40;99.90
14555;DHT22;7364;50.870;4.722;2022-10-03T06:57:32;8.90;99.90
14555;DHT22;7364;50.870;4.722;2022-10-03T07:00:11;8.90;99.90
14555;DHT22;7364;50.870;4.722;2022-10-03T07:12:28;10.00;99.90
14555;DHT22;7364;50.870;4.722;2022-10-03T07:21:31;10.90;99.90
14555;DHT22;7364;50.870;4.722;2022-10-03T07:24:32;11.00;99.90
14555;DHT22;7364;50.870;4.722;2022-10-03T07:27:18;11.00;99.90
14555;DHT22;7364;50.870;4.722;2022-10-03T07:30:07;11.20;99.90
14555;DHT22;7364;50.870;4.722;2022-10-03T07:35:44;11.60;99.90
14555;DHT22;7364;50.870;4.722;2022-10-03T07:42:05;11.50;99.90
14555;DHT22;7364;50.870;4.722;2022-10-03T07:50:56;11.80;99.90
14555;DHT22;7364;50.870;4.722;2022-10-03T07:56:55;11.80;99.90
14555;DHT22;7364;50.870;4.722;2022-10-03T07:59:56;11.90;99.90
14555;DHT22;7364;50.870;4.722;2022-10-03T08:05:56;12.20;99.90
14555;DHT22;7364;50.870;4.722;2022-10-03T08:08:54;12.20;99.90
14555;DHT22;7364;50.870;4.722;2022-10-03T08:11:51;12.10;99.90
14555;DHT22;7364;50.870;4.722;2022-10-03T08:14:31;12.10;99.90
14555;DHT22;7364;50.870;4.722;2022-10-03T08:20:39;12.00;99.90
14555;DHT22;7364;50.870;4.722;2022-10-03T08:26:16;12.40;99.90
14555;DHT22;7364;50.870;4.722;2022-10-03T08:32:26;12.60;99.90
14555;DHT22;7364;50.870;4.722;2022-10-03T08:38:32;12.70;99.90
14555;DHT22;7364;50.870;4.722;2022-10-03T08:47:49;12.60;99.90
14555;DHT22;7364;50.870;4.722;2022-10-03T08:53:49;13.00;99.90
14555;DHT22;7364;50.870;4.722;2022-10-03T08:56:23;13.40;99.90
14555;DHT22;7364;50.870;4.722;2022-10-03T09:05:36;13.70;99.90
14555;DHT22;7364;50.870;4.722;2022-10-03T09:08:34;13.20;99.90
14555;DHT22;7364;50.870;4.722;2022-10-03T09:14:38;12.80;99.90
14555;DHT22;7364;50.870;4.722;2022-10-03T09:20:40;12.80;99.90
14555;DHT22;7364;50.870;4.722;2022-10-03T09:23:34;13.20;99.90
14555;DHT22;7364;50.870;4.722;2022-10-03T09:26:50;13.60;99.90
14555;DHT22;7364;50.870;4.722;2022-10-03T09:39:01;17.70;99.90
14555;DHT22;7364;50.870;4.722;2022-10-03T09:51:02;18.30;99.90
14555;DHT22;7364;50.870;4.722;2022-10-03T09:54:01;19.00;99.90
14555;DHT22;7364;50.870;4.722;2022-10-03T10:00:00;17.90;99.90
14555;DHT22;7364;50.870;4.722;2022-10-03T10:03:10;17.50;99.90
14555;DHT22;7364;50.870;4.722;2022-10-03T10:09:05;18.60;99.90
14555;DHT22;7364;50.870;4.722;2022-10-03T10:21:02;20.50;99.90
14555;DHT22;7364;50.870;4.722;2022-10-03T10:23:50;21.10;99.90
14555;DHT22;7364;50.870;4.722;2022-10-03T10:26:55;21.90;99.90
14555;DHT22;7364;50.870;4.722;2022-10-03T10:29:40;22.00;99.90
14555;DHT22;7364;50.870;4.722;2022-10-03T10:38:25;20.40;99.90
14555;DHT22;7364;50.870;4.722;2022-10-03T10:44:43;20.20;99.90
14555;DHT22;7364;50.870;4.722;2022-10-03T10:56:58;21.10;99.90
14555;DHT22;7364;50.870;4.722;2022-10-03T11:03:06;24.30;97.90
14555;DHT22;7364;50.870;4.722;2022-10-03T11:09:27;24.60;95.30
14555;DHT22;7364;50.870;4.722;2022-10-03T11:25:02;24.70;93.20
14555;DHT22;7364;50.870;4.722;2022-10-03T11:37:06;27.40;86.90
14555;DHT22;7364;50.870;4.722;2022-10-03T11:39:46;26.30;84.50
14555;DHT22;7364;50.870;4.722;2022-10-03T11:42:23;25.40;88.80
14555;DHT22;7364;50.870;4.722;2022-10-03T11:44:58;25.50;88.20
14555;DHT22;7364;50.870;4.722;2022-10-03T11:47:48;25.80;87.20
14555;DHT22;7364;50.870;4.722;2022-10-03T11:56:29;25.00;91.10
14555;DHT22;7364;50.870;4.722;2022-10-03T11:59:16;21.80;93.60
14555;DHT22;7364;50.870;4.722;2022-10-03T12:02:00;20.50;95.60
14555;DHT22;7364;50.870;4.722;2022-10-03T12:04:50;20.30;96.80
14555;DHT22;7364;50.870;4.722;2022-10-03T12:07:36;19.90;97.80
14555;DHT22;7364;50.870;4.722;2022-10-03T12:10:35;19.60;99.20
14555;DHT22;7364;50.870;4.722;2022-10-03T12:13:22;19.40;99.90
14555;DHT22;7364;50.870;4.722;2022-10-03T12:15:56;19.20;99.90
14555;DHT22;7364;50.870;4.722;2022-10-03T12:18:28;19.20;99.90
14555;DHT22;7364;50.870;4.722;2022-10-03T12:21:08;18.90;99.90
14555;DHT22;7364;50.870;4.722;2022-10-03T12:24:10;18.80;99.90
14555;DHT22;7364;50.870;4.722;2022-10-03T12:26:49;19.00;99.90
14555;DHT22;7364;50.870;4.722;2022-10-03T12:29:25;19.10;99.90
14555;DHT22;7364;50.870;4.722;2022-10-03T12:32:03;19.00;99.90
14555;DHT22;7364;50.870;4.722;2022-10-03T12:34:37;18.80;99.90
14555;DHT22;7364;50.870;4.722;2022-10-03T12:37:33;18.70;99.90
14555;DHT22;7364;50.870;4.722;2022-10-03T12:40:10;19.00;99.90
14555;DHT22;7364;50.870;4.722;2022-10-03T12:42:42;19.40;99.90
14555;DHT22;7364;50.870;4.722;2022-10-03T12:45:22;19.90;99.90
14555;DHT22;7364;50.870;4.722;2022-10-03T12:48:07;20.30;98.80
14555;DHT22;7364;50.870;4.722;2022-10-03T12:50:43;20.60;98.20
14555;DHT22;7364;50.870;4.722;2022-10-03T12:53:26;20.80;97.60
14555;DHT22;7364;50.870;4.722;2022-10-03T12:56:05;20.90;97.40
14555;DHT22;7364;50.870;4.722;2022-10-03T12:58:49;20.90;97.80
14555;DHT22;7364;50.870;4.722;2022-10-03T13:01:28;21.10;97.20
14555;DHT22;7364;50.870;4.722;2022-10-03T13:04:01;21.20;96.70
14555;DHT22;7364;50.870;4.722;2022-10-03T13:06:42;21.10;96.40
14555;DHT22;7364;50.870;4.722;2022-10-03T13:09:28;21.10;96.80
14555;DHT22;7364;50.870;4.722;2022-10-03T13:12:05;21.10;97.10
14555;DHT22;7364;50.870;4.722;2022-10-03T13:17:45;21.30;97.00
14555;DHT22;7364;50.870;4.722;2022-10-03T13:20:21;21.30;97.20
14555;DHT22;7364;50.870;4.722;2022-10-03T13:22:57;21.40;96.90
14555;DHT22;7364;50.870;4.722;2022-10-03T13:25:34;21.50;96.60
14555;DHT22;7364;50.870;4.722;2022-10-03T13:28:08;21.50;96.70
14555;DHT22;7364;50.870;4.722;2022-10-03T13:30:44;21.50;96.50
14555;DHT22;7364;50.870;4.722;2022-10-03T13:33:17;21.60;96.30
14555;DHT22;7364;50.870;4.722;2022-10-03T13:35:48;21.60;95.80
14555;DHT22;7364;50.870;4.722;2022-10-03T13:38:57;21.60;96.40
14555;DHT22;7364;50.870;4.722;2022-10-03T13:41:50;21.50;97.10
14555;DHT22;7364;50.870;4.722;2022-10-03T13:44:34;20.60;99.90
14555;DHT22;7364;50.870;4.722;2022-10-03T13:47:12;20.10;99.90
14555;DHT22;7364;50.870;4.722;2022-10-03T13:49:49;19.80;99.90
14555;DHT22;7364;50.870;4.722;2022-10-03T13:52:23;19.90;99.90
14555;DHT22;7364;50.870;4.722;2022-10-03T13:58:12;19.30;99.90
14555;DHT22;7364;50.870;4.722;2022-10-03T14:00:53;18.80;99.90
14555;DHT22;7364;50.870;4.722;2022-10-03T14:03:26;18.90;99.90
14555;DHT22;7364;50.870;4.722;2022-10-03T14:06:08;19.30;99.90
14555;DHT22;7364;50.870;4.722;2022-10-03T14:11:38;19.70;99.90
14555;DHT22;7364;50.870;4.722;2022-10-03T14:17:13;20.00;99.90
14555;DHT22;7364;50.870;4.722;2022-10-03T14:19:52;20.10;99.90
14555;DHT22;7364;50.870;4.722;2022-10-03T14:22:37;20.40;99.90
14555;DHT22;7364;50.870;4.722;2022-10-03T14:25:18;20.60;99.90
14555;DHT22;7364;50.870;4.722;2022-10-03T14:27:51;20.40;99.90
14555;DHT22;7364;50.870;4.722;2022-10-03T14:30:20;20.70;99.90
14555;DHT22;7364;50.870;4.722;2022-10-03T14:33:15;20.80;99.90
14555;DHT22;7364;50.870;4.722;2022-10-03T14:36:03;21.00;99.90
14555;DHT22;7364;50.870;4.722;2022-10-03T14:38:46;20.90;99.90
14555;DHT22;7364;50.870;4.722;2022-10-03T14:41:44;21.30;99.90
14555;DHT22;7364;50.870;4.722;2022-10-03T14:44:18;21.00;99.90
14555;DHT22;7364;50.870;4.722;2022-10-03T14:46:51;20.70;99.90
14555;DHT22;7364;50.870;4.722;2022-10-03T14:49:24;20.40;99.90
14555;DHT22;7364;50.870;4.722;2022-10-03T14:51:58;20.50;99.90
14555;DHT22;7364;50.870;4.722;2022-10-03T14:54:29;20.30;99.90
14555;DHT22;7364;50.870;4.722;2022-10-03T14:57:13;20.20;99.90
14555;DHT22;7364;50.870;4.722;2022-10-03T14:59:52;20.00;99.90
14555;DHT22;7364;50.870;4.722;2022-10-03T15:02:27;19.70;99.90
14555;DHT22;7364;50.870;4.722;2022-10-03T15:05:01;19.50;99.90
14555;DHT22;7364;50.870;4.722;2022-10-03T15:07:35;19.60;99.90
14555;DHT22;7364;50.870;4.722;2022-10-03T15:10:09;19.60;99.90
14555;DHT22;7364;50.870;4.722;2022-10-03T15:12:41;19.40;99.90
14555;DHT22;7364;50.870;4.722;2022-10-03T15:15:17;19.20;99.90
14555;DHT22;7364;50.870;4.722;2022-10-03T15:17:48;19.10;99.90
14555;DHT22;7364;50.870;4.722;2022-10-03T15:20:18;18.90;99.90
14555;DHT22;7364;50.870;4.722;2022-10-03T15:22:50;18.80;99.90
14555;DHT22;7364;50.870;4.722;2022-10-03T15:25:22;19.00;99.90
14555;DHT22;7364;50.870;4.722;2022-10-03T15:27:53;19.40;99.90
14555;DHT22;7364;50.870;4.722;2022-10-03T15:30:22;19.50;99.90
14555;DHT22;7364;50.870;4.722;2022-10-03T15:32:52;19.60;99.90
14555;DHT22;7364;50.870;4.722;2022-10-03T15:35:23;19.50;99.90
14555;DHT22;7364;50.870;4.722;2022-10-03T15:37:52;19.60;99.90
14555;DHT22;7364;50.870;4.722;2022-10-03T15:40:28;19.60;99.90
14555;DHT22;7364;50.870;4.722;2022-10-03T15:43:03;19.50;99.90
14555;DHT22;7364;50.870;4.722;2022-10-03T15:45:34;19.10;99.90
14555;DHT22;7364;50.870;4.722;2022-10-03T15:48:05;18.80;99.90
14555;DHT22;7364;50.870;4.722;2022-10-03T15:50:38;18.70;99.90
14555;DHT22;7364;50.870;4.722;2022-10-03T15:53:14;18.50;99.90
14555;DHT22;7364;50.870;4.722;2022-10-03T15:55:47;18.40;99.90
14555;DHT22;7364;50.870;4.722;2022-10-03T15:58:18;18.50;99.90
14555;DHT22;7364;50.870;4.722;2022-10-03T16:00:53;18.40;99.90
14555;DHT22;7364;50.870;4.722;2022-10-03T16:03:27;18.20;99.90
14555;DHT22;7364;50.870;4.722;2022-10-03T16:06:04;18.10;99.90
14555;DHT22;7364;50.870;4.722;2022-10-03T16:08:39;17.90;99.90
14555;DHT22;7364;50.870;4.722;2022-10-03T16:11:15;17.90;99.90
14555;DHT22;7364;50.870;4.722;2022-10-03T16:13:45;17.90;99.90
14555;DHT22;7364;50.870;4.722;2022-10-03T16:16:21;18.00;99.90
14555;DHT22;7364;50.870;4.722;2022-10-03T16:18:54;18.10;99.90
14555;DHT22;7364;50.870;4.722;2022-10-03T16:21:41;18.10;99.90
14555;DHT22;7364;50.870;4.722;2022-10-03T16:24:17;18.10;99.90
14555;DHT22;7364;50.870;4.722;2022-10-03T16:26:51;18.40;99.90
14555;DHT22;7364;50.870;4.722;2022-10-03T16:29:24;18.40;99.90
14555;DHT22;7364;50.870;4.722;2022-10-03T16:31:55;18.30;99.90
14555;DHT22;7364;50.870;4.722;2022-10-03T16:34:26;18.30;99.90
14555;DHT22;7364;50.870;4.722;2022-10-03T16:36:56;18.30;99.90
14555;DHT22;7364;50.870;4.722;2022-10-03T16:39:27;18.20;99.90
14555;DHT22;7364;50.870;4.722;2022-10-03T16:41:59;18.20;99.90
14555;DHT22;7364;50.870;4.722;2022-10-03T16:44:35;18.10;99.90
14555;DHT22;7364;50.870;4.722;2022-10-03T16:47:05;18.10;99.90
14555;DHT22;7364;50.870;4.722;2022-10-03T16:49:37;18.10;99.90
14555;DHT22;7364;50.870;4.722;2022-10-03T16:52:29;18.10;99.90
14555;DHT22;7364;50.870;4.722;2022-10-03T16:55:01;18.00;99.90
14555;DHT22;7364;50.870;4.722;2022-10-03T16:57:39;18.10;99.90
14555;DHT22;7364;50.870;4.722;2022-10-03T17:00:15;18.10;99.90
14555;DHT22;7364;50.870;4.722;2022-10-03T17:02:44;18.00;99.90
14555;DHT22;7364;50.870;4.722;2022-10-03T17:05:13;17.90;99.90
14555;DHT22;7364;50.870;4.722;2022-10-03T17:07:44;18.00;99.90
14555;DHT22;7364;50.870;4.722;2022-10-03T17:10:32;18.00;99.90
14555;DHT22;7364;50.870;4.722;2022-10-03T17:13:09;17.80;99.90
14555;DHT22;7364;50.870;4.722;2022-10-03T17:15:45;17.60;99.90
14555;DHT22;7364;50.870;4.722;2022-10-03T17:18:20;17.60;99.90
14555;DHT22;7364;50.870;4.722;2022-10-03T17:20:53;17.60;99.90
14555;DHT22;7364;50.870;4.722;2022-10-03T17:23:28;17.50;99.90
14555;DHT22;7364;50.870;4.722;2022-10-03T17:26:04;17.60;99.90
14555;DHT22;7364;50.870;4.722;2022-10-03T17:28:38;17.50;99.90
14555;DHT22;7364;50.870;4.722;2022-10-03T17:31:26;17.40;99.90
14555;DHT22;7364;50.870;4.722;2022-10-03T17:34:00;17.30;99.90
14555;DHT22;7364;50.870;4.722;2022-10-03T17:36:55;17.20;99.90
14555;DHT22;7364;50.870;4.722;2022-10-03T17:39:37;17.00;99.90
14555;DHT22;7364;50.870;4.722;2022-10-03T17:42:17;16.90;99.90
14555;DHT22;7364;50.870;4.722;2022-10-03T17:45:08;16.80;99.90
14555;DHT22;7364;50.870;4.722;2022-10-03T17:47:46;16.90;99.90
14555;DHT22;7364;50.870;4.722;2022-10-03T17:50:21;16.80;99.90
14555;DHT22;7364;50.870;4.722;2022-10-03T17:52:50;16.60;99.90
14555;DHT22;7364;50.870;4.722;2022-10-03T17:55:27;16.50;99.90
14555;DHT22;7364;50.870;4.722;2022-10-03T17:57:59;16.40;99.90
14555;DHT22;7364;50.870;4.722;2022-10-03T18:00:53;16.30;99.90
14555;DHT22;7364;50.870;4.722;2022-10-03T18:03:27;16.30;99.90
14555;DHT22;7364;50.870;4.722;2022-10-03T18:06:01;16.00;99.90
14555;DHT22;7364;50.870;4.722;2022-10-03T18:08:34;15.90;99.90
14555;DHT22;7364;50.870;4.722;2022-10-03T18:11:02;15.90;99.90
14555;DHT22;7364;50.870;4.722;2022-10-03T18:13:36;15.90;99.90
14555;DHT22;7364;50.870;4.722;2022-10-03T18:16:21;16.10;99.90
14555;DHT22;7364;50.870;4.722;2022-10-03T18:19:19;16.10;99.90
14555;DHT22;7364;50.870;4.722;2022-10-03T18:22:09;16.00;99.90
14555;DHT22;7364;50.870;4.722;2022-10-03T18:24:52;15.80;99.90
14555;DHT22;7364;50.870;4.722;2022-10-03T18:30:19;15.70;99.90
14555;DHT22;7364;50.870;4.722;2022-10-03T18:32:49;15.60;99.90
14555;DHT22;7364;50.870;4.722;2022-10-03T18:35:21;15.50;99.90
14555;DHT22;7364;50.870;4.722;2022-10-03T18:38:04;15.50;99.90
14555;DHT22;7364;50.870;4.722;2022-10-03T18:40:34;15.40;99.90
14555;DHT22;7364;50.870;4.722;2022-10-03T18:43:06;15.30;99.90
14555;DHT22;7364;50.870;4.722;2022-10-03T18:45:44;15.10;99.90
14555;DHT22;7364;50.870;4.722;2022-10-03T18:48:20;15.20;99.90
14555;DHT22;7364;50.870;4.722;2022-10-03T18:50:56;15.30;99.90
14555;DHT22;7364;50.870;4.722;2022-10-03T18:53:32;15.20;99.90
14555;DHT22;7364;50.870;4.722;2022-10-03T18:56:02;15.30;99.90
14555;DHT22;7364;50.870;4.722;2022-10-03T18:58:35;15.30;99.90
14555;DHT22;7364;50.870;4.722;2022-10-03T19:01:06;15.20;99.90
14555;DHT22;7364;50.870;4.722;2022-10-03T19:03:40;15.10;99.90
14555;DHT22;7364;50.870;4.722;2022-10-03T19:06:16;15.00;99.90
14555;DHT22;7364;50.870;4.722;2022-10-03T19:08:49;14.80;99.90
14555;DHT22;7364;50.870;4.722;2022-10-03T19:11:22;14.40;99.90
14555;DHT22;7364;50.870;4.722;2022-10-03T19:13:58;14.40;99.90
14555;DHT22;7364;50.870;4.722;2022-10-03T19:16:50;14.60;99.90
14555;DHT22;7364;50.870;4.722;2022-10-03T19:19:25;14.60;99.90
14555;DHT22;7364;50.870;4.722;2022-10-03T19:22:02;14.40;99.90
14555;DHT22;7364;50.870;4.722;2022-10-03T19:24:33;14.10;99.90
14555;DHT22;7364;50.870;4.722;2022-10-03T19:27:09;13.70;99.90
14555;DHT22;7364;50.870;4.722;2022-10-03T19:29:39;13.70;99.90
14555;DHT22;7364;50.870;4.722;2022-10-03T19:32:17;13.90;99.90
14555;DHT22;7364;50.870;4.722;2022-10-03T19:34:50;13.80;99.90
14555;DHT22;7364;50.870;4.722;2022-10-03T19:37:34;13.90;99.90
14555;DHT22;7364;50.870;4.722;2022-10-03T19:40:13;14.00;99.90
14555;DHT22;7364;50.870;4.722;2022-10-03T19:42:44;14.10;99.90
14555;DHT22;7364;50.870;4.722;2022-10-03T19:45:14;14.00;99.90
14555;DHT22;7364;50.870;4.722;2022-10-03T19:47:48;14.10;99.90
14555;DHT22;7364;50.870;4.722;2022-10-03T19:50:20;14.20;99.90
14555;DHT22;7364;50.870;4.722;2022-10-03T19:52:52;14.30;99.90
14555;DHT22;7364;50.870;4.722;2022-10-03T19:55:21;14.30;99.90
14555;DHT22;7364;50.870;4.722;2022-10-03T19:57:52;14.20;99.90
14555;DHT22;7364;50.870;4.722;2022-10-03T20:00:25;14.20;99.90
14555;DHT22;7364;50.870;4.722;2022-10-03T20:03:04;14.20;99.90
14555;DHT22;7364;50.870;4.722;2022-10-03T20:05:38;14.10;99.90
14555;DHT22;7364;50.870;4.722;2022-10-03T20:08:17;14.10;99.90
14555;DHT22;7364;50.870;4.722;2022-10-03T20:11:14;14.10;99.90
14555;DHT22;7364;50.870;4.722;2022-10-03T20:13:46;14.20;99.90
14555;DHT22;7364;50.870;4.722;2022-10-03T20:16:15;14.10;99.90
14555;DHT22;7364;50.870;4.722;2022-10-03T20:18:44;14.10;99.90
14555;DHT22;7364;50.870;4.722;2022-10-03T20:21:19;14.10;99.90
14555;DHT22;7364;50.870;4.722;2022-10-03T20:23:51;14.10;99.90
14555;DHT22;7364;50.870;4.722;2022-10-03T20:26:24;14.10;99.90
14555;DHT22;7364;50.870;4.722;2022-10-03T20:29:16;14.00;99.90
14555;DHT22;7364;50.870;4.722;2022-10-03T20:31:46;13.90;99.90
14555;DHT22;7364;50.870;4.722;2022-10-03T20:34:16;13.50;99.90
14555;DHT22;7364;50.870;4.722;2022-10-03T20:36:51;13.50;99.90
14555;DHT22;7364;50.870;4.722;2022-10-03T20:39:26;13.60;99.90
14555;DHT22;7364;50.870;4.722;2022-10-03T20:42:03;13.50;99.90
14555;DHT22;7364;50.870;4.722;2022-10-03T20:47:46;13.50;99.90
14555;DHT22;7364;50.870;4.722;2022-10-03T20:50:19;13.50;99.90
14555;DHT22;7364;50.870;4.722;2022-10-03T20:52:52;13.50;99.90
14555;DHT22;7364;50.870;4.722;2022-10-03T20:55:27;13.40;99.90
14555;DHT22;7364;50.870;4.722;2022-10-03T20:58:05;13.30;99.90
14555;DHT22;7364;50.870;4.722;2022-10-03T21:00:55;13.20;99.90
14555;DHT22;7364;50.870;4.722;2022-10-03T21:03:28;13.10;99.90
14555;DHT22;7364;50.870;4.722;2022-10-03T21:05:59;13.00;99.90
14555;DHT22;7364;50.870;4.722;2022-10-03T21:08:35;12.90;99.90
14555;DHT22;7364;50.870;4.722;2022-10-03T21:11:14;12.80;99.90
14555;DHT22;7364;50.870;4.722;2022-10-03T21:13:48;12.80;99.90
14555;DHT22;7364;50.870;4.722;2022-10-03T21:16:22;12.80;99.90